Time;durP1;ratioP1;P1;durP2;ratioP2;P2;SDS_P1;SDS_P2;PMS_P1;PMS_P2;Temp;Humidity;BMP_temperature;BMP_pressure;BME280_temperature;BME280_humidity;BME280_pressure;Samples;Min_cycle;Max_cycle;Signal;HPM_P1;HPM_P2
2022/08/14 00:01:59;;;;;;;11.05;6.40;;;;;;;20.40;58.05;101097.78;5010595;28;20025;-55
2022/08/14 00:04:25;;;;;;;11.70;6.88;;;;;;;20.41;58.40;101092.16;5005832;28;20032;-56
2022/08/14 00:06:50;;;;;;;11.20;6.50;;;;;;;20.49;58.22;101093.72;5007983;28;20038;-56
2022/08/14 00:09:15;;;;;;;11.48;6.75;;;;;;;20.35;58.46;101095.75;4995235;28;20058;-57
2022/08/14 00:11:41;;;;;;;9.20;7.00;;;;;;;20.39;58.62;101091.53;5000604;28;20041;-58
2022/08/14 00:14:06;;;;;;;8.90;6.93;;;;;;;20.48;58.74;101085.84;5011141;28;20031;-56
2022/08/14 00:16:31;;;;;;;9.13;7.25;;;;;;;20.36;58.67;101092.00;5002890;28;20030;-57
2022/08/14 00:18:57;;;;;;;9.93;6.95;;;;;;;20.40;58.73;101081.59;5005466;28;20532;-57
2022/08/14 00:21:22;;;;;;;11.93;7.72;;;;;;;20.38;59.10;101079.13;5003122;28;20478;-58
2022/08/14 00:23:50;;;;;;;12.25;7.60;;;;;;;20.28;58.97;101081.53;5004245;28;20117;-56
2022/08/14 00:26:15;;;;;;;10.25;7.30;;;;;;;20.34;59.16;101079.81;5005848;28;20037;-56
2022/08/14 00:28:41;;;;;;;11.00;7.70;;;;;;;20.39;58.63;101072.66;5008064;28;20021;-57
2022/08/14 00:31:06;;;;;;;9.88;7.80;;;;;;;20.39;58.54;101074.53;5005357;28;20026;-56
2022/08/14 00:33:31;;;;;;;8.77;7.47;;;;;;;20.32;59.05;101065.72;5005424;28;20025;-56
2022/08/14 00:35:57;;;;;;;10.07;7.47;;;;;;;20.31;58.80;101067.59;5009617;28;20028;-56
2022/08/14 00:38:22;;;;;;;9.50;7.38;;;;;;;20.33;58.88;101056.59;5017069;28;20405;-57
2022/08/14 00:40:48;;;;;;;9.40;7.13;;;;;;;20.30;58.65;101055.16;5007780;28;20022;-56
2022/08/14 00:43:14;;;;;;;10.23;8.10;;;;;;;20.30;58.25;101047.06;5009365;28;20030;-55
2022/08/14 00:45:40;;;;;;;12.45;8.50;;;;;;;20.22;58.53;101041.16;5010733;28;20139;-56
2022/08/14 00:48:05;;;;;;;9.70;7.57;;;;;;;20.21;58.43;101045.72;5008637;28;20025;-56
2022/08/14 00:50:31;;;;;;;12.00;8.25;;;;;;;20.17;58.24;101044.53;5012851;28;20025;-55
2022/08/14 00:52:58;;;;;;;12.43;7.95;;;;;;;20.27;58.07;101049.41;5004650;28;20037;-55
2022/08/14 00:55:26;;;;;;;11.80;7.90;;;;;;;20.09;58.44;101040.31;5001496;28;20031;-54
2022/08/14 01:00:39;;;;;;;11.75;8.02;;;;;;;20.14;58.63;101030.69;5016166;28;20040;-55
2022/08/14 01:03:06;;;;;;;8.48;7.55;;;;;;;20.05;58.44;101038.28;5002421;28;20479;-56
2022/08/14 01:05:33;;;;;;;9.75;8.10;;;;;;;19.97;58.51;101031.34;5005385;28;20030;-52
2022/08/14 01:07:59;;;;;;;10.55;7.68;;;;;;;20.00;58.82;101030.91;5008934;28;20492;-57
2022/08/14 01:13:15;;;;;;;8.98;7.53;;;;;;;19.98;58.88;101024.09;5005923;28;20121;-56
2022/08/14 01:15:42;;;;;;;11.30;7.88;;;;;;;19.95;58.68;101019.13;5005687;28;20022;-56
2022/08/14 01:21:02;;;;;;;11.60;8.30;;;;;;;19.87;58.60;101004.09;5006395;28;20067;-53
2022/08/14 01:23:29;;;;;;;10.38;8.25;;;;;;;19.88;58.43;101011.13;5003044;28;20025;-57
2022/08/14 01:25:55;;;;;;;10.57;8.55;;;;;;;19.90;58.72;101000.94;5001696;28;20589;-56
2022/08/14 01:28:25;;;;;;;9.95;8.38;;;;;;;19.98;58.33;101008.75;5005648;28;20038;-56
2022/08/14 01:30:54;;;;;;;10.93;8.60;;;;;;;20.00;58.44;100997.72;5010026;28;20037;-56
2022/08/14 01:33:21;;;;;;;11.02;8.05;;;;;;;20.06;57.73;100994.94;5006688;28;20112;-56
2022/08/14 01:35:46;;;;;;;9.02;8.13;;;;;;;20.14;57.84;101006.44;5011207;28;20022;-55
2022/08/14 01:38:14;;;;;;;14.48;8.48;;;;;;;20.20;57.39;101005.50;5002471;28;21366;-55
2022/08/14 01:40:40;;;;;;;11.85;8.35;;;;;;;20.24;57.44;101007.53;5002404;28;20045;-52
2022/08/14 01:43:13;;;;;;;9.23;8.10;;;;;;;20.23;57.30;101003.16;5007021;28;20121;-55
2022/08/14 01:45:39;;;;;;;9.90;7.95;;;;;;;20.27;57.07;101006.25;5008082;28;20100;-54
2022/08/14 01:48:04;;;;;;;10.15;8.60;;;;;;;20.15;57.13;101005.38;5002342;28;20022;-56
2022/08/14 01:50:29;;;;;;;10.98;8.48;;;;;;;20.00;57.50;101003.13;5006872;28;20077;-53
2022/08/14 01:52:55;;;;;;;10.13;8.68;;;;;;;19.86;57.65;101007.03;5011749;28;20405;-56
2022/08/14 01:55:22;;;;;;;10.32;8.15;;;;;;;19.89;57.51;101007.38;5005305;28;20030;-55
2022/08/14 01:57:47;;;;;;;9.68;7.95;;;;;;;19.81;57.25;101007.72;5005740;28;20036;-54
2022/08/14 02:00:17;;;;;;;10.63;8.40;;;;;;;19.62;57.92;101003.38;5011577;28;20037;-55
2022/08/14 02:02:43;;;;;;;9.80;7.90;;;;;;;19.59;57.91;100998.44;5004408;28;20084;-56
2022/08/14 02:05:12;;;;;;;9.60;8.55;;;;;;;19.65;57.86;101009.13;5007784;28;20018;-54
2022/08/14 02:07:37;;;;;;;14.13;8.60;;;;;;;19.70;58.17;100997.72;5010450;28;20061;-57
2022/08/14 02:10:05;;;;;;;14.82;9.48;;;;;;;19.65;58.25;100992.16;5015940;28;20053;-56
2022/08/14 02:12:30;;;;;;;13.05;9.10;;;;;;;19.53;59.26;100985.88;5007310;28;20042;-56
2022/08/14 02:14:56;;;;;;;9.45;8.50;;;;;;;19.46;59.59;100988.63;5010651;28;20026;-57
2022/08/14 02:17:22;;;;;;;11.77;9.05;;;;;;;19.42;59.88;100988.28;5007168;28;20022;-57
2022/08/14 02:19:49;;;;;;;11.05;8.95;;;;;;;19.40;60.54;100992.25;5009066;28;20057;-57
2022/08/14 02:22:17;;;;;;;11.50;8.90;;;;;;;19.37;60.54;100995.34;5012010;28;20021;-55
2022/08/14 02:24:43;;;;;;;10.75;9.60;;;;;;;19.33;61.21;100989.59;5013346;28;20124;-55
2022/08/14 02:27:10;;;;;;;10.20;9.15;;;;;;;19.35;61.23;100992.88;5015013;28;20025;-55
2022/08/14 02:29:36;;;;;;;10.27;9.10;;;;;;;19.25;61.23;100992.59;5009956;28;20433;-56
2022/08/14 02:32:01;;;;;;;10.45;9.45;;;;;;;19.20;61.01;100984.38;5010282;28;20034;-57
2022/08/14 02:34:32;;;;;;;11.23;9.48;;;;;;;19.22;60.91;100992.22;5009379;28;20095;-56
2022/08/14 02:37:02;;;;;;;13.88;9.70;;;;;;;19.18;61.32;100991.84;5010882;28;20681;-57
2022/08/14 02:39:29;;;;;;;10.70;9.02;;;;;;;19.18;61.60;100991.84;5009020;28;20038;-57
2022/08/14 02:41:55;;;;;;;10.68;9.25;;;;;;;19.10;61.94;100984.91;5007048;28;20036;-57
2022/08/14 02:44:22;;;;;;;10.45;9.27;;;;;;;19.08;61.71;100981.63;5008013;28;20521;-57
2022/08/14 02:46:49;;;;;;;10.18;9.10;;;;;;;18.93;61.56;100978.44;5007538;28;20030;-55
2022/08/14 02:49:14;;;;;;;9.48;8.45;;;;;;;18.79;61.06;100980.44;5010141;28;20030;-56
2022/08/14 02:51:40;;;;;;;10.68;8.88;;;;;;;18.79;61.07;100984.97;5007448;28;20079;-57
2022/08/14 02:54:08;;;;;;;11.23;8.85;;;;;;;18.93;60.97;100977.63;5011856;28;20030;-56
2022/08/14 02:56:37;;;;;;;18.83;9.30;;;;;;;19.01;61.43;100982.69;5007467;28;20026;-55
2022/08/14 02:59:04;;;;;;;11.23;10.15;;;;;;;19.03;61.90;100972.53;5009153;28;20033;-56
2022/08/14 03:01:29;;;;;;;10.40;9.35;;;;;;;18.98;61.77;100972.38;5002378;28;20014;-56
2022/08/14 03:03:55;;;;;;;10.52;9.43;;;;;;;19.00;62.20;100978.38;5007387;28;20033;-57
2022/08/14 03:06:24;;;;;;;14.10;9.82;;;;;;;18.86;62.54;100975.00;5011641;28;20489;-56
2022/08/14 03:08:49;;;;;;;17.17;9.70;;;;;;;18.88;62.71;100973.72;5007265;28;20025;-56
2022/08/14 03:11:15;;;;;;;10.95;9.95;;;;;;;18.80;63.04;100962.44;5010678;28;20029;-54
2022/08/14 03:13:43;;;;;;;12.13;10.35;;;;;;;18.70;63.23;100962.91;5006272;28;20123;-55
2022/08/14 03:16:13;;;;;;;12.77;10.02;;;;;;;18.62;63.78;100963.22;5009002;28;20061;-56
2022/08/14 03:18:43;;;;;;;11.25;10.15;;;;;;;18.57;63.59;100968.41;5007317;28;20124;-52
2022/08/14 03:21:12;;;;;;;12.02;9.73;;;;;;;18.50;63.86;100963.09;5008070;28;20017;-56
2022/08/14 03:23:37;;;;;;;;;;;;;;;18.73;63.39;100965.16;5007564;28;20041;-55
2022/08/14 03:26:05;;;;;;;11.80;9.85;;;;;;;18.43;63.83;100962.28;5007420;28;20444;-56
2022/08/14 03:28:31;;;;;;;12.57;10.43;;;;;;;18.36;63.75;100961.53;5005705;28;20029;-55
2022/08/14 03:30:57;;;;;;;11.70;10.60;;;;;;;18.30;63.99;100966.97;5009741;28;20401;-55
2022/08/14 03:33:22;;;;;;;10.98;9.95;;;;;;;18.25;64.00;100964.94;5010189;28;20033;-55
2022/08/14 03:35:49;;;;;;;12.15;10.82;;;;;;;18.21;64.03;100964.53;5010453;28;20478;-55
2022/08/14 03:38:17;;;;;;;12.48;10.35;;;;;;;18.25;64.03;100954.19;5009002;28;20492;-56
2022/08/14 03:40:44;;;;;;;11.68;10.57;;;;;;;18.18;64.34;100958.75;5007768;28;20077;-56
2022/08/14 03:43:10;;;;;;;14.65;11.63;;;;;;;18.13;64.24;100955.91;5007663;28;20651;-56
2022/08/14 03:45:37;;;;;;;16.42;11.38;;;;;;;18.03;64.02;100952.88;5009632;28;20081;-55
2022/08/14 03:48:18;;;;;;;11.60;10.50;;;;;;;18.11;63.87;100955.28;5008393;28;20025;-56
2022/08/14 03:50:50;;;;;;;13.25;11.35;;;;;;;18.11;63.96;100953.44;5008276;28;20092;-56
2022/08/14 03:53:17;;;;;;;15.07;10.88;;;;;;;18.09;64.24;100947.44;5010879;28;20112;-56
2022/08/14 03:55:42;;;;;;;14.38;11.25;;;;;;;18.05;64.42;100951.63;5007166;28;20026;-56
2022/08/14 03:58:09;;;;;;;14.38;11.45;;;;;;;18.02;64.68;100952.06;5010988;28;20531;-55
2022/08/14 04:00:36;;;;;;;13.68;11.07;;;;;;;18.01;64.38;100946.91;5012074;28;20041;-55
2022/08/14 04:03:04;;;;;;;14.98;11.40;;;;;;;18.00;64.29;100950.63;5012202;28;20022;-56
2022/08/14 04:05:30;;;;;;;12.73;11.52;;;;;;;17.96;64.66;100947.53;5013650;28;20389;-55
2022/08/14 04:07:57;;;;;;;15.43;11.60;;;;;;;17.93;64.14;100948.81;5009450;28;20486;-55
2022/08/14 04:10:22;;;;;;;14.00;11.77;;;;;;;17.86;64.30;100953.38;5008332;28;20083;-54
2022/08/14 04:12:48;;;;;;;13.73;11.95;;;;;;;17.81;64.77;100957.75;5006357;28;20021;-55
2022/08/14 04:15:13;;;;;;;14.63;12.10;;;;;;;17.81;64.82;100960.44;5005482;28;20025;-55
2022/08/14 04:17:42;;;;;;;15.68;12.20;;;;;;;17.77;64.87;100946.63;5009595;28;20017;-55
2022/08/14 04:20:08;;;;;;;13.48;12.05;;;;;;;17.82;65.17;100948.66;5004664;28;20397;-55
2022/08/14 04:22:34;;;;;;;13.85;12.40;;;;;;;17.84;65.28;100947.41;5006720;28;20034;-57
2022/08/14 04:25:00;;;;;;;13.48;12.07;;;;;;;17.89;65.33;100944.06;5010744;28;20092;-52
2022/08/14 04:27:26;;;;;;;14.93;12.43;;;;;;;17.93;64.86;100934.56;5008261;28;20041;-55
2022/08/14 04:29:52;;;;;;;15.00;12.20;;;;;;;17.86;64.89;100939.94;5010883;28;20390;-54
2022/08/14 04:32:18;;;;;;;14.90;12.20;;;;;;;17.82;65.08;100943.28;5009236;28;20030;-55
2022/08/14 04:34:43;;;;;;;14.93;12.00;;;;;;;17.72;65.19;100921.44;5007537;28;20603;-56
2022/08/14 04:45:25;;;;;;;15.10;12.18;;;;;;;18.02;65.17;100935.94;5008149;28;20041;-57
2022/08/14 04:50:36;;;;;;;13.90;12.45;;;;;;;18.09;64.81;100917.06;5004267;28;20100;-53
2022/08/14 04:53:02;;;;;;;15.57;12.18;;;;;;;18.09;64.98;100925.94;5003829;28;20121;-56
2022/08/14 04:55:28;;;;;;;15.23;12.70;;;;;;;18.15;64.88;100927.75;5001135;28;20453;-54
2022/08/14 04:57:54;;;;;;;16.23;12.68;;;;;;;18.12;64.91;100920.13;5007751;28;20033;-54
2022/08/14 05:00:20;;;;;;;17.17;12.82;;;;;;;18.07;65.04;100919.16;5002580;28;20022;-57
2022/08/14 05:02:46;;;;;;;17.50;12.90;;;;;;;18.09;65.34;100915.19;5004828;28;20058;-56
2022/08/14 05:05:11;;;;;;;14.00;12.50;;;;;;;18.14;64.81;100914.53;5005452;28;20054;-54
2022/08/14 05:07:37;;;;;;;15.60;12.82;;;;;;;18.18;65.14;100915.75;5013606;28;20119;-56
2022/08/14 05:10:03;;;;;;;18.10;12.95;;;;;;;18.17;65.21;100912.22;5006850;28;20060;-57
2022/08/14 05:12:28;;;;;;;17.73;14.07;;;;;;;18.15;65.45;100906.25;5007508;28;20474;-55
2022/08/14 05:14:54;;;;;;;15.60;13.88;;;;;;;18.18;65.57;100905.00;5005077;28;20564;-55
2022/08/14 05:17:20;;;;;;;18.13;14.23;;;;;;;18.21;65.50;100897.34;5007368;28;20982;-57
2022/08/14 05:19:45;;;;;;;17.38;14.10;;;;;;;18.24;65.76;100912.19;5005878;28;20085;-56
2022/08/14 05:22:11;;;;;;;22.20;14.32;;;;;;;18.33;65.53;100912.75;5008362;28;20030;-56
2022/08/14 05:24:36;;;;;;;16.33;14.70;;;;;;;18.36;65.88;100909.63;5009856;28;20056;-56
2022/08/14 05:27:02;;;;;;;16.20;14.57;;;;;;;18.43;65.53;100907.69;5009536;28;20120;-54
2022/08/14 05:29:28;;;;;;;16.38;14.15;;;;;;;18.51;66.02;100905.56;5008215;28;20033;-55
2022/08/14 05:31:55;;;;;;;15.95;14.27;;;;;;;18.57;65.74;100901.97;5008334;28;20476;-55
2022/08/14 05:34:21;;;;;;;16.55;14.18;;;;;;;18.67;66.03;100904.19;5010510;28;20026;-55
2022/08/14 05:36:46;;;;;;;17.58;14.43;;;;;;;18.79;65.89;100904.25;5011609;28;20021;-55
2022/08/14 05:39:11;;;;;;;17.98;15.15;;;;;;;18.80;65.80;100906.75;5007367;28;20025;-56
2022/08/14 05:41:37;;;;;;;18.10;14.50;;;;;;;18.93;65.84;100896.88;5010431;28;20681;-56
2022/08/14 05:44:02;;;;;;;16.55;14.93;;;;;;;19.02;66.27;100895.53;5007721;28;20033;-55
2022/08/14 05:46:27;;;;;;;17.30;15.35;;;;;;;19.06;66.10;100902.91;5009692;28;20026;-53
2022/08/14 05:48:55;;;;;;;19.58;15.20;;;;;;;19.26;66.26;100907.25;5009332;28;20513;-53
2022/08/14 05:51:22;;;;;;;17.08;15.07;;;;;;;19.31;66.17;100908.22;5012225;28;20045;-54
2022/08/14 05:53:47;;;;;;;20.67;15.20;;;;;;;19.37;65.59;100895.72;5006731;28;20367;-54
2022/08/14 05:56:13;;;;;;;17.83;16.13;;;;;;;19.39;65.33;100893.63;5007198;28;20506;-52
2022/08/14 05:58:38;;;;;;;20.48;16.38;;;;;;;19.45;65.08;100901.63;5013217;28;20021;-55
2022/08/14 06:01:04;;;;;;;20.52;15.98;;;;;;;19.53;65.00;100905.91;5012224;28;20492;-55
2022/08/14 06:03:29;;;;;;;21.73;16.15;;;;;;;19.58;64.46;100897.94;5007924;28;20026;-58
2022/08/14 06:05:55;;;;;;;22.38;16.20;;;;;;;19.66;64.19;100902.19;5007402;28;20026;-56
2022/08/14 06:08:28;;;;;;;22.13;16.73;;;;;;;19.73;63.93;100905.63;5013896;28;20588;-56
2022/08/14 06:11:01;;;;;;;20.30;16.55;;;;;;;19.82;63.87;100903.44;5014956;28;20038;-56
2022/08/14 06:13:27;;;;;;;20.75;16.50;;;;;;;19.90;63.93;100895.81;5014527;28;20037;-55
2022/08/14 06:15:52;;;;;;;18.58;16.63;;;;;;;19.96;63.41;100896.81;5010872;28;20088;-56
2022/08/14 06:18:18;;;;;;;18.52;16.50;;;;;;;20.04;63.58;100893.75;5006536;28;20064;-56
2022/08/14 06:20:44;;;;;;;18.52;16.50;;;;;;;20.10;63.24;100906.31;5001336;28;20385;-55
2022/08/14 06:23:09;;;;;;;20.48;16.60;;;;;;;20.15;63.17;100897.53;5000896;28;20110;-57
2022/08/14 06:25:35;;;;;;;20.77;17.33;;;;;;;20.24;62.94;100899.66;4999092;28;20019;-54
2022/08/14 06:28:00;;;;;;;21.08;16.88;;;;;;;20.32;62.66;100901.19;4998651;28;20026;-55
2022/08/14 06:30:30;;;;;;;19.48;16.33;;;;;;;20.39;62.65;100897.31;5005448;28;20057;-55
2022/08/14 06:32:56;;;;;;;22.00;16.33;;;;;;;20.48;62.60;100897.00;4995725;28;20383;-55
2022/08/14 06:35:22;;;;;;;18.27;16.30;;;;;;;20.54;62.55;100893.38;4999084;28;20097;-56
2022/08/14 06:37:59;;;;;;;19.23;16.23;;;;;;;20.63;62.11;100895.47;5006080;28;20026;-54
2022/08/14 06:40:30;;;;;;;22.63;15.95;;;;;;;20.71;61.93;100895.13;5006299;28;20018;-55
2022/08/14 06:42:58;;;;;;;19.30;16.17;;;;;;;20.84;62.36;100895.94;5010116;28;20362;-56
2022/08/14 06:45:23;;;;;;;20.75;15.90;;;;;;;20.92;62.06;100891.00;5014494;28;20101;-57
2022/08/14 06:47:48;;;;;;;18.02;15.73;;;;;;;21.01;61.74;100884.16;5010139;28;20104;-56
2022/08/14 06:50:17;;;;;;;18.10;14.77;;;;;;;21.15;61.63;100895.53;5011583;28;20022;-56
2022/08/14 06:52:43;;;;;;;17.67;15.43;;;;;;;21.24;61.46;100890.59;5009264;28;20481;-56
2022/08/14 06:55:11;;;;;;;16.63;14.50;;;;;;;21.28;61.40;100895.25;4995840;28;20069;-57
2022/08/14 06:57:44;;;;;;;20.30;14.10;;;;;;;21.37;61.00;100889.47;4998702;28;20054;-56
2022/08/14 07:00:15;;;;;;;16.30;14.30;;;;;;;21.47;61.18;100893.22;4996938;28;20080;-55
2022/08/14 07:08:29;;;;;;;19.77;13.07;;;;;;;21.75;60.41;100856.41;4947676;28;20049;-55
2022/08/14 07:10:58;;;;;;;14.38;12.10;;;;;;;21.89;60.24;100866.66;4998104;28;20076;-57
2022/08/14 07:13:25;;;;;;;16.30;12.35;;;;;;;21.95;59.53;100870.25;5007839;28;20493;-56
2022/08/14 07:15:53;;;;;;;17.85;12.55;;;;;;;21.99;59.46;100876.03;5008973;28;20022;-56
2022/08/14 07:18:20;;;;;;;14.73;12.00;;;;;;;22.05;58.85;100877.78;5008394;28;20029;-55
2022/08/14 07:20:45;;;;;;;16.08;12.18;;;;;;;22.10;58.92;100875.97;5015931;28;20021;-56
2022/08/14 07:23:11;;;;;;;14.07;11.80;;;;;;;22.20;58.60;100869.91;5006769;28;20390;-56
2022/08/14 07:25:38;;;;;;;15.55;11.75;;;;;;;22.28;58.21;100860.56;5010036;28;20030;-55
2022/08/14 07:28:15;;;;;;;13.20;11.85;;;;;;;22.31;58.20;100865.47;5007969;28;20026;-56
2022/08/14 07:30:41;;;;;;;13.73;11.27;;;;;;;22.40;58.09;100872.09;5007201;28;20065;-57
2022/08/14 07:33:07;;;;;;;15.15;10.43;;;;;;;22.47;57.97;100872.75;5005923;28;20022;-55
2022/08/14 07:35:34;;;;;;;13.18;11.02;;;;;;;22.49;57.54;100868.72;5011315;28;20102;-56
2022/08/14 07:37:59;;;;;;;13.45;10.60;;;;;;;22.56;57.10;100869.38;5010437;28;20017;-55
2022/08/14 07:40:25;;;;;;;19.48;11.68;;;;;;;22.64;56.93;100878.97;5008343;28;20084;-56
2022/08/14 07:42:51;;;;;;;13.55;11.20;;;;;;;22.68;56.65;100869.25;5009096;28;20394;-56
2022/08/14 07:45:17;;;;;;;12.18;10.73;;;;;;;22.75;56.64;100869.06;5014226;28;20068;-56
2022/08/14 07:47:42;;;;;;;18.13;11.25;;;;;;;22.76;56.43;100866.13;5007375;28;20037;-56
2022/08/14 07:50:17;;;;;;;14.75;10.77;;;;;;;22.86;56.69;100868.19;5009394;28;20026;-53
2022/08/14 07:52:45;;;;;;;16.00;10.98;;;;;;;22.98;56.86;100865.34;5008303;28;20034;-56
2022/08/14 07:55:11;;;;;;;14.80;10.87;;;;;;;23.05;56.55;100860.56;5002801;28;20501;-55
2022/08/14 07:57:42;;;;;;;14.93;10.93;;;;;;;23.11;56.31;100868.47;4998742;28;20034;-56
2022/08/14 08:00:11;;;;;;;14.27;10.82;;;;;;;23.20;55.85;100865.34;5000711;28;20101;-56
2022/08/14 08:02:39;;;;;;;16.63;10.40;;;;;;;23.25;55.72;100868.09;4997641;28;20087;-56
2022/08/14 08:05:05;;;;;;;14.05;10.60;;;;;;;23.32;55.82;100860.59;4999153;28;20539;-56
2022/08/14 08:07:31;;;;;;;14.98;10.27;;;;;;;23.40;55.93;100871.78;5001759;28;20490;-56
2022/08/14 08:09:57;;;;;;;13.95;10.23;;;;;;;23.49;55.64;100864.03;5006171;28;20072;-55
2022/08/14 08:12:24;;;;;;;15.40;11.25;;;;;;;23.55;55.28;100871.16;4997383;28;20105;-56
2022/08/14 08:14:50;;;;;;;12.38;10.10;;;;;;;23.59;55.06;100864.16;5007378;28;20041;-57
2022/08/14 08:17:21;;;;;;;13.30;10.45;;;;;;;23.62;54.45;100862.84;5008537;28;20029;-57
2022/08/14 08:19:47;;;;;;;13.57;10.73;;;;;;;23.70;54.39;100876.75;5006011;28;20088;-57
2022/08/14 08:22:13;;;;;;;13.90;9.80;;;;;;;23.76;53.90;100864.88;5009956;28;20018;-56
2022/08/14 08:24:38;;;;;;;14.68;10.75;;;;;;;23.80;53.68;100862.47;5014821;28;20033;-57
2022/08/14 08:27:15;;;;;;;18.23;10.40;;;;;;;23.89;53.52;100860.91;5007896;28;20032;-56
2022/08/14 08:29:41;;;;;;;10.63;9.60;;;;;;;23.96;53.03;100857.97;5007175;28;20085;-56
2022/08/14 08:32:07;;;;;;;13.80;9.95;;;;;;;24.03;52.59;100854.00;5007405;28;20026;-57
2022/08/14 08:34:45;;;;;;;11.30;9.98;;;;;;;24.13;52.64;100850.53;5005633;28;20096;-57
2022/08/14 08:37:11;;;;;;;13.23;10.25;;;;;;;24.23;52.70;100850.59;5008244;28;20180;-57
2022/08/14 08:39:47;;;;;;;11.95;9.88;;;;;;;24.30;51.90;100842.28;5002118;28;20021;-56
2022/08/14 08:42:23;;;;;;;11.75;9.18;;;;;;;24.40;51.91;100845.88;5008777;28;20079;-57
2022/08/14 08:44:53;;;;;;;11.13;9.95;;;;;;;24.49;51.85;100842.66;5013162;28;20021;-56
2022/08/14 08:47:18;;;;;;;12.40;10.38;;;;;;;24.55;52.22;100853.28;5009741;28;20034;-57
2022/08/14 08:49:44;;;;;;;11.65;9.00;;;;;;;24.64;52.32;100851.72;5006321;28;20401;-57
2022/08/14 08:52:10;;;;;;;11.73;9.70;;;;;;;24.73;52.11;100859.34;5005458;28;20079;-57
2022/08/14 08:54:36;;;;;;;12.80;9.52;;;;;;;24.81;52.11;100853.41;5006085;28;20014;-57
2022/08/14 08:57:10;;;;;;;11.70;9.02;;;;;;;24.94;51.95;100859.19;5007888;28;20030;-56
2022/08/14 08:59:35;;;;;;;14.85;8.85;;;;;;;25.07;51.94;100857.91;5012020;28;20028;-55
2022/08/14 09:02:06;;;;;;;9.95;8.52;;;;;;;25.20;51.87;100849.25;5006249;28;20026;-56
2022/08/14 09:04:37;;;;;;;10.20;9.05;;;;;;;25.29;51.70;100844.13;5015050;28;20034;-57
2022/08/14 09:07:04;;;;;;;11.43;8.95;;;;;;;25.35;51.41;100837.59;5011730;28;20053;-57
2022/08/14 09:09:30;;;;;;;12.13;8.70;;;;;;;25.52;51.07;100840.91;5009490;28;20028;-57
2022/08/14 09:11:59;;;;;;;9.60;8.15;;;;;;;25.70;50.66;100850.47;5010778;28;20041;-57
2022/08/14 09:14:28;;;;;;;10.85;9.00;;;;;;;25.78;50.38;100843.69;5016449;28;20025;-57
2022/08/14 09:16:54;;;;;;;9.52;8.30;;;;;;;25.90;50.29;100841.50;5012568;28;20033;-57
2022/08/14 09:19:20;;;;;;;12.30;8.45;;;;;;;26.07;49.88;100833.06;5011660;28;20037;-57
2022/08/14 09:21:45;;;;;;;9.20;8.13;;;;;;;26.21;49.85;100821.31;5012105;28;20010;-57
2022/08/14 09:24:11;;;;;;;9.60;8.27;;;;;;;26.30;49.28;100823.47;5014465;28;20025;-57
2022/08/14 09:26:38;;;;;;;9.95;8.95;;;;;;;26.40;48.74;100821.59;5011039;28;20033;-57
2022/08/14 09:29:04;;;;;;;11.45;9.07;;;;;;;26.54;48.18;100824.53;5015329;28;20036;-57
2022/08/14 09:31:32;;;;;;;13.43;8.15;;;;;;;26.67;48.19;100823.16;5012761;28;20058;-56
2022/08/14 09:34:06;;;;;;;9.63;7.65;;;;;;;26.94;48.00;100831.75;5009935;28;20030;-57
2022/08/14 09:37:05;;;;;;;11.77;8.05;;;;;;;27.04;47.10;100822.75;5010213;28;20032;-57
2022/08/14 09:39:46;;;;;;;11.45;8.07;;;;;;;27.26;46.49;100811.44;5009398;28;20021;-57
2022/08/14 09:42:30;;;;;;;9.52;7.70;;;;;;;27.43;46.10;100820.84;5007409;28;20025;-57
2022/08/14 09:45:17;;;;;;;10.35;7.45;;;;;;;27.54;45.85;100815.34;5012024;28;20157;-57
2022/08/14 09:47:44;;;;;;;10.68;7.53;;;;;;;27.58;45.42;100810.94;5012759;28;20636;-57
2022/08/14 09:50:22;;;;;;;10.65;7.85;;;;;;;27.86;45.33;100810.22;5010529;28;20026;-57
2022/08/14 09:53:07;;;;;;;9.73;8.35;;;;;;;27.84;44.75;100804.22;5005997;28;20393;-57
2022/08/14 09:55:35;;;;;;;10.60;8.02;;;;;;;28.11;44.86;100797.41;5010459;28;20437;-58
2022/08/14 09:58:17;;;;;;;11.88;8.88;;;;;;;28.33;44.58;100792.28;5008319;28;20030;-58
2022/08/14 10:00:58;;;;;;;12.48;7.95;;;;;;;28.51;44.39;100796.19;5007201;28;20025;-57
2022/08/14 10:03:34;;;;;;;8.70;7.90;;;;;;;28.51;43.95;100790.72;5012033;28;20033;-57
2022/08/14 10:06:05;;;;;;;10.82;7.45;;;;;;;28.63;43.29;100789.22;5001987;28;20112;-57
2022/08/14 10:09:02;;;;;;;8.65;7.75;;;;;;;28.67;42.66;100787.53;4996492;28;20029;-58
2022/08/14 10:11:33;;;;;;;8.88;7.97;;;;;;;28.69;42.64;100781.75;4999191;28;20077;-57
2022/08/14 10:14:19;;;;;;;9.30;6.85;;;;;;;28.96;42.07;100775.69;4995543;28;20030;-58
2022/08/14 10:16:46;;;;;;;7.88;6.60;;;;;;;29.04;41.44;100768.75;5003779;28;20030;-57
2022/08/14 10:19:14;;;;;;;10.68;6.82;;;;;;;29.19;41.60;100769.31;4997898;28;20037;-58
2022/08/14 10:21:48;;;;;;;6.95;5.85;;;;;;;29.35;41.52;100763.63;4997821;28;20405;-57
2022/08/14 10:24:25;;;;;;;7.88;5.85;;;;;;;29.54;41.20;100764.44;4996854;28;20022;-58
2022/08/14 10:26:55;;;;;;;8.20;6.50;;;;;;;29.63;40.61;100754.44;4994267;28;20056;-58
2022/08/14 10:29:33;;;;;;;9.25;6.13;;;;;;;29.70;40.13;100757.59;5000278;28;20122;-58
2022/08/14 10:31:59;;;;;;;13.25;6.20;;;;;;;29.82;40.30;100757.94;4996944;28;20034;-57
2022/08/14 10:34:33;;;;;;;8.27;6.53;;;;;;;29.82;39.94;100751.66;5000394;28;20426;-57
2022/08/14 10:37:15;;;;;;;6.00;5.40;;;;;;;29.91;39.12;100747.09;4998342;28;20033;-57
2022/08/14 10:39:42;;;;;;;8.05;5.75;;;;;;;30.03;38.43;100741.94;4998431;28;20026;-57
2022/08/14 10:42:13;;;;;;;5.68;5.10;;;;;;;30.10;38.20;100744.31;5001006;28;20015;-57
2022/08/14 10:44:44;;;;;;;6.43;5.10;;;;;;;30.14;37.82;100734.38;5004355;28;20087;-58
2022/08/14 10:47:11;;;;;;;7.95;5.45;;;;;;;30.08;37.28;100730.91;5008928;28;20099;-58
2022/08/14 10:49:48;;;;;;;6.10;5.50;;;;;;;30.12;37.61;100733.84;5008666;28;20038;-57
2022/08/14 10:52:23;;;;;;;6.93;5.00;;;;;;;30.23;37.29;100727.06;5008378;28;20517;-58
2022/08/14 10:54:50;;;;;;;5.63;5.00;;;;;;;30.24;37.37;100723.19;5006057;28;20038;-57
2022/08/14 10:57:20;;;;;;;7.20;4.78;;;;;;;30.27;36.81;100722.59;5012274;28;20060;-58
2022/08/14 10:59:48;;;;;;;10.10;5.18;;;;;;;30.15;36.77;100723.09;5006469;28;20038;-57
2022/08/14 11:02:29;;;;;;;8.23;5.78;;;;;;;30.19;36.71;100726.03;5003797;28;20445;-57
2022/08/14 11:05:28;;;;;;;7.43;5.07;;;;;;;30.30;36.76;100719.22;5009490;28;20401;-58
2022/08/14 11:07:53;;;;;;;9.13;4.60;;;;;;;30.35;36.19;100707.34;4991683;28;20045;-58
2022/08/14 11:10:21;;;;;;;5.40;4.37;;;;;;;30.60;36.24;100720.53;5003511;28;20045;-58
2022/08/14 11:12:48;;;;;;;7.67;4.30;;;;;;;30.68;35.66;100710.81;5003015;28;20287;-58
2022/08/14 11:15:18;;;;;;;7.57;4.80;;;;;;;30.61;35.01;100718.63;5000499;28;20058;-57
2022/08/14 11:17:46;;;;;;;5.15;4.05;;;;;;;30.55;35.01;100717.88;5003621;28;20021;-57
2022/08/14 11:20:12;;;;;;;7.55;4.65;;;;;;;30.48;34.92;100718.31;5004853;28;20038;-57
2022/08/14 11:22:40;;;;;;;10.38;4.57;;;;;;;30.57;35.02;100721.13;5007332;28;20053;-58
2022/08/14 11:25:06;;;;;;;4.47;3.97;;;;;;;30.59;34.38;100718.88;5016000;28;20393;-57
2022/08/14 11:27:33;;;;;;;3.92;3.50;;;;;;;30.54;33.75;100719.00;5010759;28;20508;-58
2022/08/14 11:30:10;;;;;;;4.22;3.80;;;;;;;30.62;33.65;100717.50;5014602;28;20072;-58
2022/08/14 11:32:38;;;;;;;4.65;3.60;;;;;;;30.79;33.42;100712.19;5013117;28;20116;-58
2022/08/14 11:35:04;;;;;;;5.90;4.15;;;;;;;30.93;33.15;100706.66;4996252;28;20054;-56
2022/08/14 11:37:33;;;;;;;5.15;3.95;;;;;;;31.07;32.95;100702.75;4998151;28;20026;-58
2022/08/14 11:40:01;;;;;;;;;;;;;;;31.21;33.19;100715.59;5007851;28;20438;-58
2022/08/14 11:42:28;;;;;;;4.38;3.97;;;;;;;31.06;32.68;100708.53;5004763;28;19914;-57
2022/08/14 11:45:02;;;;;;;5.97;3.50;;;;;;;30.97;32.35;100705.75;5007093;28;20545;-56
2022/08/14 11:47:31;;;;;;;5.47;3.50;;;;;;;30.90;31.75;100697.09;5014130;28;20038;-57